Time;durP1;ratioP1;P1;durP2;ratioP2;P2;SDS_P1;SDS_P2;PMS_P1;PMS_P2;Temp;Humidity;BMP_temperature;BMP_pressure;BME280_temperature;BME280_humidity;BME280_pressure;Samples;Min_cycle;Max_cycle;Signal;HPM_P1;HPM_P2
2022/04/13 00:00:31;;;;;;;;;;;;;;;14.62;56.28;101109.88;5087306;28;19989;-69
2022/04/13 00:02:56;;;;;;;;;;;;;;;14.56;56.31;101103.69;5088175;28;19924;-70
2022/04/13 00:05:22;;;;;;;;;;;;;;;14.51;54.30;101106.22;5088568;28;19924;-69
2022/04/13 00:07:47;;;;;;;;;;;;;;;14.42;56.71;101112.06;5088429;28;19920;-70
2022/04/13 00:10:12;;;;;;;;;;;;;;;14.36;55.64;101111.09;5087575;28;19931;-69
2022/04/13 00:12:38;;;;;;;;;;;;;;;14.28;57.32;101111.00;5084946;28;19934;-70
2022/04/13 00:15:04;;;;;;;;;;;;;;;14.22;57.78;101111.75;5088736;28;19923;-69
2022/04/13 00:17:30;;;;;;;;;;;;;;;14.18;55.99;101109.94;5087542;28;20546;-69
2022/04/13 00:19:55;;;;;;;;;;;;;;;14.16;56.25;101113.38;5087810;28;20372;-70
2022/04/13 00:22:21;;;;;;;;;;;;;;;14.13;57.07;101110.72;5086154;28;19972;-69
2022/04/13 00:24:46;;;;;;;;;;;;;;;14.10;58.95;101116.72;5084483;28;19924;-69
2022/04/13 00:27:11;;;;;;;;;;;;;;;14.09;58.33;101117.56;5085059;28;19961;-69
2022/04/13 00:29:37;;;;;;;;;;;;;;;14.07;58.10;101123.53;5089451;28;19985;-69
2022/04/13 00:32:03;;;;;;;;;;;;;;;14.06;58.64;101122.66;5090018;28;20327;-69
2022/04/13 00:34:29;;;;;;;;;;;;;;;14.04;58.53;101120.91;5086112;28;20427;-69
2022/04/13 00:36:57;;;;;;;;;;;;;;;13.99;57.80;101120.81;5086191;28;20066;-69
2022/04/13 00:39:22;;;;;;;;;;;;;;;13.97;58.91;101122.50;5087867;28;19931;-70
2022/04/13 00:41:54;;;;;;;;;;;;;;;13.93;58.86;101136.22;5086411;28;19916;-70
2022/04/13 00:44:19;;;;;;;;;;;;;;;13.87;59.39;101136.97;5086422;28;20292;-70
2022/04/13 00:46:44;;;;;;;;;;;;;;;13.82;58.64;101141.19;5083846;28;19921;-69
2022/04/13 00:49:10;;;;;;;;;;;;;;;13.79;59.20;101138.56;5087802;28;20366;-70
2022/04/13 00:51:35;;;;;;;;;;;;;;;13.77;56.52;101149.69;5084865;28;19920;-69
2022/04/13 00:54:00;;;;;;;;;;;;;;;13.75;60.41;101154.81;5088475;28;20358;-69
2022/04/13 00:56:27;;;;;;;;;;;;;;;13.70;61.46;101151.28;5083784;28;19924;-70
2022/04/13 00:58:53;;;;;;;;;;;;;;;13.65;60.38;101151.22;5085493;28;20394;-69
2022/04/13 01:01:20;;;;;;;;;;;;;;;13.64;61.19;101159.78;5086643;28;19920;-69
2022/04/13 01:03:46;;;;;;;;;;;;;;;13.61;61.79;101154.56;5091874;28;20372;-70
2022/04/13 01:06:12;;;;;;;;;;;;;;;13.59;60.55;101160.53;5087165;28;19924;-70
2022/04/13 01:08:38;;;;;;;;;;;;;;;13.55;61.13;101169.06;5087930;28;19920;-69
2022/04/13 01:11:03;;;;;;;;;;;;;;;13.50;61.28;101171.56;5087736;28;20027;-70
2022/04/13 01:13:29;;;;;;;;;;;;;;;13.48;61.79;101180.13;5084770;28;20347;-70
2022/04/13 01:15:54;;;;;;;;;;;;;;;13.45;61.80;101177.47;5090726;28;20330;-70
2022/04/13 01:18:19;;;;;;;;;;;;;;;13.43;60.19;101177.44;5088729;28;19924;-69
2022/04/13 01:20:48;;;;;;;;;;;;;;;13.42;61.66;101178.28;5081261;28;20400;-70
2022/04/13 01:23:14;;;;;;;;;;;;;;;13.42;62.74;101180.84;5087434;28;19920;-69
2022/04/13 01:25:46;;;;;;;;;;;;;;;13.45;59.76;101187.78;5089908;28;19950;-72
2022/04/13 01:28:11;;;;;;;;;;;;;;;13.44;61.00;101191.22;5085752;28;20288;-71
2022/04/13 01:30:37;;;;;;;;;;;;;;;13.44;62.16;101204.13;5090695;28;19924;-71
2022/04/13 01:33:03;;;;;;;;;;;;;;;13.42;61.64;101204.09;5083286;28;20434;-69
2022/04/13 01:35:28;;;;;;;;;;;;;;;13.40;63.01;101206.63;5090156;28;19924;-69
2022/04/13 01:37:54;;;;;;;;;;;;;;;13.38;60.77;101205.75;5068549;28;19943;-69
2022/04/13 01:40:19;;;;;;;;;;;;;;;13.35;62.45;101205.69;5090049;28;20383;-69
2022/04/13 01:42:47;;;;;;;;;;;;;;;13.33;63.59;101209.91;5087401;28;19920;-70
2022/04/13 01:45:19;;;;;;;;;;;;;;;13.33;63.75;101215.09;5085115;28;19928;-70
2022/04/13 01:47:45;;;;;;;;;;;;;;;13.32;64.03;101221.09;5079611;28;19992;-70
2022/04/13 01:50:10;;;;;;;;;;;;;;;13.31;64.26;101227.09;5086837;28;20391;-69
2022/04/13 01:52:35;;;;;;;;;;;;;;;13.28;62.63;101228.72;5087217;28;19928;-69
2022/04/13 01:55:00;;;;;;;;;;;;;;;13.28;64.92;101223.56;5085583;28;20408;-70
2022/04/13 01:57:26;;;;;;;;;;;;;;;13.29;63.91;101227.94;5086629;28;19920;-69
2022/04/13 01:59:51;;;;;;;;;;;;;;;13.29;63.60;101227.94;5083654;28;20019;-70
2022/04/13 02:02:16;;;;;;;;;;;;;;;13.28;63.74;101229.59;5084794;28;19924;-71
2022/04/13 02:04:42;;;;;;;;;;;;;;;13.27;64.46;101224.41;5085754;28;20364;-69
2022/04/13 02:07:07;;;;;;;;;;;;;;;13.28;64.01;101223.56;5087965;28;20012;-71
2022/04/13 02:09:32;;;;;;;;;;;;;;;13.25;63.84;101224.38;5084586;28;19916;-69
2022/04/13 02:11:58;;;;;;;;;;;;;;;13.25;64.40;101224.38;5085367;28;19920;-69
2022/04/13 02:14:23;;;;;;;;;;;;;;;13.22;63.52;101226.88;5082340;28;20463;-69
2022/04/13 02:16:48;;;;;;;;;;;;;;;13.21;62.99;101232.03;5086566;28;19947;-70
2022/04/13 02:19:13;;;;;;;;;;;;;;;13.20;64.94;101238.00;5087242;28;20014;-70
2022/04/13 02:21:39;;;;;;;;;;;;;;;13.17;61.43;101243.09;5088337;28;19923;-70
2022/04/13 02:24:05;;;;;;;;;;;;;;;13.13;66.36;101244.72;5085783;28;19924;-69
2022/04/13 02:26:30;;;;;;;;;;;;;;;13.08;66.25;101243.75;5083257;28;19924;-69
2022/04/13 02:28:55;;;;;;;;;;;;;;;13.05;66.59;101243.69;5091525;28;19920;-70
2022/04/13 02:31:21;;;;;;;;;;;;;;;13.04;64.63;101241.91;5084823;28;19916;-69
2022/04/13 02:33:47;;;;;;;;;;;;;;;13.03;64.43;101245.34;5085126;28;19923;-70
2022/04/13 02:36:12;;;;;;;;;;;;;;;12.99;65.51;101253.88;5085789;28;19935;-70
2022/04/13 02:38:38;;;;;;;;;;;;;;;12.96;66.41;101249.47;5086247;28;19920;-69
2022/04/13 02:41:04;;;;;;;;;;;;;;;12.92;65.88;101251.94;5084025;28;19935;-70
2022/04/13 02:43:29;;;;;;;;;;;;;;;12.87;64.93;101251.84;5085064;28;19928;-69
2022/04/13 02:45:56;;;;;;;;;;;;;;;12.85;65.54;101254.38;5084079;28;19973;-69
2022/04/13 02:48:21;;;;;;;;;;;;;;;12.83;65.65;101262.91;5085956;28;19927;-69
2022/04/13 02:50:48;;;;;;;;;;;;;;;12.80;66.57;101263.72;5083599;28;19920;-70
2022/04/13 02:53:13;;;;;;;;;;;;;;;12.75;67.54;101264.44;5086206;28;19923;-69
2022/04/13 02:55:39;;;;;;;;;;;;;;;12.69;69.52;101274.59;5078965;28;19928;-69
2022/04/13 02:58:05;;;;;;;;;;;;;;;12.65;67.27;101270.19;5080556;28;20386;-69
2022/04/13 03:00:30;;;;;;;;;;;;;;;12.57;68.47;101265.72;5086306;28;19998;-70
2022/04/13 03:02:55;;;;;;;;;;;;;;;12.50;67.54;101274.13;5087725;28;19934;-69
2022/04/13 03:05:20;;;;;;;;;;;;;;;12.45;69.00;101275.69;5088441;28;19930;-68
2022/04/13 03:07:46;;;;;;;;;;;;;;;12.37;70.09;101277.19;5068780;28;20395;-68
2022/04/13 03:10:11;;;;;;;;;;;;;;;12.29;70.42;101273.53;5089899;28;19916;-68
2022/04/13 03:12:37;;;;;;;;;;;;;;;12.20;69.81;101273.28;5086898;28;19994;-69
2022/04/13 03:15:05;;;;;;;;;;;;;;;12.14;70.76;101270.53;5088909;28;19916;-69
2022/04/13 03:17:31;;;;;;;;;;;;;;;12.03;71.38;101268.53;5088812;28;19985;-70
2022/04/13 03:19:56;;;;;;;;;;;;;;;11.97;71.42;101270.94;5086882;28;19927;-69
2022/04/13 03:22:22;;;;;;;;;;;;;;;11.88;71.06;101264.63;5089946;28;19920;-69
2022/04/13 03:24:48;;;;;;;;;;;;;;;11.78;71.95;101268.63;5089633;28;20300;-70
2022/04/13 03:27:13;;;;;;;;;;;;;;;11.70;72.40;101265.78;5089380;28;19928;-69
2022/04/13 03:29:38;;;;;;;;;;;;;;;11.63;71.50;101271.59;5088893;28;19938;-69
2022/04/13 03:32:04;;;;;;;;;;;;;;;11.57;70.93;101267.97;5089027;28;19924;-69
2022/04/13 03:34:30;;;;;;;;;;;;;;;11.50;71.96;101267.75;5090158;28;19920;-68
2022/04/13 03:36:55;;;;;;;;;;;;;;;11.45;72.39;101273.59;5090218;28;19984;-68
2022/04/13 03:39:20;;;;;;;;;;;;;;;11.37;72.27;101275.94;5085614;28;19969;-70
2022/04/13 03:41:46;;;;;;;;;;;;;;;11.31;73.07;101275.75;5086807;28;19921;-71
2022/04/13 03:44:11;;;;;;;;;;;;;;;11.26;73.54;101282.44;5105294;28;19916;-68
2022/04/13 03:46:36;;;;;;;;;;;;;;;11.17;73.99;101285.63;5084889;28;20007;-69
2022/04/13 03:49:01;;;;;;;;;;;;;;;11.11;72.68;101288.00;5083683;28;20296;-70
2022/04/13 03:51:27;;;;;;;;;;;;;;;11.05;72.81;101285.22;5091018;28;20368;-69
2022/04/13 03:53:52;;;;;;;;;;;;;;;11.00;72.97;101297.06;5084081;28;19985;-69
2022/04/13 03:56:17;;;;;;;;;;;;;;;10.97;73.55;101294.38;5087434;28;19919;-69
2022/04/13 03:58:43;;;;;;;;;;;;;;;10.93;72.52;101293.41;5089750;28;19920;-69
2022/04/13 04:01:08;;;;;;;;;;;;;;;10.92;73.85;101301.06;5087572;28;19920;-69
2022/04/13 04:03:34;;;;;;;;;;;;;;;10.87;76.10;101300.06;5090770;28;20304;-68
2022/04/13 04:05:59;;;;;;;;;;;;;;;10.81;76.21;101302.41;5087831;28;20018;-70
2022/04/13 04:08:26;;;;;;;;;;;;;;;10.72;76.52;101296.13;5088363;28;19927;-69
2022/04/13 04:10:51;;;;;;;;;;;;;;;10.65;75.83;101296.72;5087293;28;19920;-69
2022/04/13 04:13:16;;;;;;;;;;;;;;;10.59;75.32;101300.78;5087256;28;19927;-69
2022/04/13 04:15:41;;;;;;;;;;;;;;;10.55;75.01;101310.06;5086141;28;20307;-70
2022/04/13 04:18:07;;;;;;;;;;;;;;;10.53;76.17;101314.31;5087211;28;20016;-69
2022/04/13 04:20:33;;;;;;;;;;;;;;;10.51;77.37;101322.78;5091692;28;19967;-69
2022/04/13 04:22:58;;;;;;;;;;;;;;;10.46;76.77;101320.94;5086657;28;19939;-70
2022/04/13 04:25:23;;;;;;;;;;;;;;;10.43;76.96;101323.41;5086453;28;19923;-69
2022/04/13 04:27:48;;;;;;;;;;;;;;;10.40;77.62;101319.84;5082379;28;20441;-69
2022/04/13 04:30:14;;;;;;;;;;;;;;;10.36;79.19;101320.53;5085755;28;19920;-70
2022/04/13 04:32:39;;;;;;;;;;;;;;;10.33;77.84;101317.88;5088081;28;20413;-71
2022/04/13 04:35:05;;;;;;;;;;;;;;;10.30;77.81;101328.91;5084742;28;20019;-71
2022/04/13 04:37:31;;;;;;;;;;;;;;;10.28;81.22;101327.97;5078531;28;19925;-70
2022/04/13 04:39:56;;;;;;;;;;;;;;;10.29;80.21;101334.00;5087787;28;20394;-69
2022/04/13 04:42:21;;;;;;;;;;;;;;;10.32;79.64;101341.84;5088571;28;19920;-69
2022/04/13 04:44:46;;;;;;;;;;;;;;;10.36;80.32;101338.53;5088999;28;20430;-68
2022/04/13 04:47:12;;;;;;;;;;;;;;;10.41;79.76;101332.75;5086401;28;19920;-71
2022/04/13 04:49:37;;;;;;;;;;;;;;;10.48;78.40;101347.56;5088671;28;19978;-70
2022/04/13 04:52:03;;;;;;;;;;;;;;;10.57;77.16;101346.16;5087816;28;19928;-71
2022/04/13 04:54:28;;;;;;;;;;;;;;;10.62;75.38;101353.22;5086082;28;20434;-69
2022/04/13 04:56:53;;;;;;;;;;;;;;;10.65;78.35;101349.88;5084555;28;19963;-69
2022/04/13 04:59:19;;;;;;;;;;;;;;;10.67;74.40;101358.50;5086761;28;19927;-69
2022/04/13 05:01:44;;;;;;;;;;;;;;;10.69;72.58;101364.59;5087017;28;20335;-69
2022/04/13 05:04:09;;;;;;;;;;;;;;;10.72;70.37;101369.84;5085249;28;19920;-69
2022/04/13 05:06:34;;;;;;;;;;;;;;;10.71;71.19;101368.09;5089134;28;19920;-70
2022/04/13 05:09:00;;;;;;;;;;;;;;;10.71;69.79;101368.97;5084166;28;19927;-69
2022/04/13 05:11:25;;;;;;;;;;;;;;;10.74;69.31;101378.50;5084717;28;20439;-69
2022/04/13 05:13:50;;;;;;;;;;;;;;;10.79;71.91;101379.50;5086864;28;20386;-69
2022/04/13 05:16:16;;;;;;;;;;;;;;;10.84;77.16;101379.69;5084368;28;19970;-70
2022/04/13 05:18:42;;;;;;;;;;;;;;;10.90;74.10;101387.63;5087642;28;20007;-68
2022/04/13 05:21:08;;;;;;;;;;;;;;;10.96;73.82;101385.25;5087960;28;19916;-70
2022/04/13 05:23:34;;;;;;;;;;;;;;;11.04;75.42;101388.97;5088419;28;19938;-67
2022/04/13 05:25:59;;;;;;;;;;;;;;;11.13;77.90;101389.28;5086443;28;20402;-67
2022/04/13 05:28:24;;;;;;;;;;;;;;;11.25;76.98;101393.97;5084782;28;19916;-70
2022/04/13 05:30:49;;;;;;;;;;;;;;;11.42;78.03;101397.13;5087993;28;19951;-68
2022/04/13 05:33:15;;;;;;;;;;;;;;;11.60;68.66;101404.56;5089852;28;20346;-69
2022/04/13 05:35:40;;;;;;;;;;;;;;;11.86;71.60;101406.31;5081995;28;19985;-70
2022/04/13 05:38:06;;;;;;;;;;;;;;;12.10;70.63;101407.91;5086021;28;20373;-68
2022/04/13 05:40:32;;;;;;;;;;;;;;;12.35;72.72;101413.81;5081963;28;19920;-70
2022/04/13 05:42:57;;;;;;;;;;;;;;;12.62;74.56;101415.47;5082770;28;20432;-70
2022/04/13 05:45:22;;;;;;;;;;;;;;;12.83;73.19;101417.78;5086410;28;19916;-72
2022/04/13 05:47:47;;;;;;;;;;;;;;;12.94;69.41;101411.19;5086790;28;19977;-70
2022/04/13 05:50:13;;;;;;;;;;;;;;;13.12;72.57;101418.56;5088437;28;20331;-70
2022/04/13 05:52:39;;;;;;;;;;;;;;;13.22;71.39;101417.09;5079900;28;19927;-72
2022/04/13 05:55:05;;;;;;;;;;;;;;;13.27;71.64;101425.84;5085539;28;19919;-71
2022/04/13 05:57:30;;;;;;;;;;;;;;;13.32;69.45;101424.28;5085927;28;19920;-71
2022/04/13 05:59:56;;;;;;;;;;;;;;;13.37;71.74;101427.84;5086995;28;19920;-70
2022/04/13 06:02:21;;;;;;;;;;;;;;;13.45;69.50;101425.44;5084808;28;20061;-71
2022/04/13 06:04:46;;;;;;;;;;;;;;;13.61;67.88;101428.47;5085307;28;19965;-72
2022/04/13 06:07:12;;;;;;;;;;;;;;;13.90;68.22;101438.63;5087028;28;20387;-71
2022/04/13 06:09:37;;;;;;;;;;;;;;;14.18;68.69;101432.38;5085571;28;19920;-71
2022/04/13 06:12:02;;;;;;;;;;;;;;;14.47;71.07;101444.25;5082394;28;19920;-68
2022/04/13 06:14:28;;;;;;;;;;;;;;;14.85;70.54;101444.16;5088716;28;20363;-72
2022/04/13 06:16:53;;;;;;;;;;;;;;;15.25;66.88;101442.34;5085795;28;19951;-70
2022/04/13 06:19:18;;;;;;;;;;;;;;;15.81;66.83;101447.66;5085499;28;20181;-69
2022/04/13 06:21:43;;;;;;;;;;;;;;;16.29;65.50;101447.50;5087233;28;19916;-68
2022/04/13 06:24:09;;;;;;;;;;;;;;;16.65;64.13;101443.66;5088872;28;20024;-69
2022/04/13 06:26:34;;;;;;;;;;;;;;;16.80;63.77;101450.78;5080011;28;19961;-70
2022/04/13 06:28:59;;;;;;;;;;;;;;;16.97;62.91;101450.97;5065279;28;20007;-69
2022/04/13 06:31:24;;;;;;;;;;;;;;;17.41;61.84;101456.63;5083075;28;19920;-71
2022/04/13 06:33:52;;;;;;;;;;;;;;;17.81;60.24;101459.63;5086699;28;20396;-69
2022/04/13 06:36:17;;;;;;;;;;;;;;;17.80;60.14;101456.16;5086018;28;19927;-70
2022/04/13 06:38:43;;;;;;;;;;;;;;;17.60;60.44;101452.50;5086481;28;19912;-70
2022/04/13 06:41:08;;;;;;;;;;;;;;;17.52;60.46;101457.59;5088484;28;20437;-70
2022/04/13 06:43:34;;;;;;;;;;;;;;;17.23;60.90;101461.66;5083667;28;19917;-70
2022/04/13 06:45:59;;;;;;;;;;;;;;;16.98;61.49;101461.38;5086337;28;19984;-70
2022/04/13 06:48:24;;;;;;;;;;;;;;;16.87;61.96;101468.22;5087558;28;20262;-70
2022/04/13 06:50:50;;;;;;;;;;;;;;;16.92;62.39;101476.03;5087896;28;19997;-70
2022/04/13 06:53:17;;;;;;;;;;;;;;;16.91;61.37;101480.34;5084073;28;19923;-70
2022/04/13 06:55:43;;;;;;;;;;;;;;;16.91;62.03;101482.94;5085006;28;19927;-70
2022/04/13 06:58:08;;;;;;;;;;;;;;;17.05;63.14;101484.00;5086670;28;19924;-70
2022/04/13 07:00:34;;;;;;;;;;;;;;;17.33;61.60;101485.16;5080421;28;19924;-71
2022/04/13 07:02:59;;;;;;;;;;;;;;;17.66;61.02;101495.03;5086634;28;19920;-69
2022/04/13 07:05:25;;;;;;;;;;;;;;;18.06;60.68;101502.31;5085815;28;20336;-70
2022/04/13 07:07:50;;;;;;;;;;;;;;;18.36;59.04;101505.13;5085804;28;19924;-70
2022/04/13 07:10:15;;;;;;;;;;;;;;;18.37;58.81;101509.47;5087880;28;19920;-70
2022/04/13 07:12:41;;;;;;;;;;;;;;;18.71;57.75;101515.78;5083363;28;19959;-70
2022/04/13 07:15:06;;;;;;;;;;;;;;;18.94;57.15;101508.06;5085108;28;20312;-70
2022/04/13 07:17:31;;;;;;;;;;;;;;;18.92;56.61;101503.69;5083992;28;19969;-71
2022/04/13 07:19:57;;;;;;;;;;;;;;;18.64;57.43;101513.97;5084766;28;19928;-70
2022/04/13 07:22:22;;;;;;;;;;;;;;;18.28;57.65;101513.75;5083924;28;19916;-71
2022/04/13 07:24:47;;;;;;;;;;;;;;;17.99;58.76;101529.16;5085778;28;19930;-72
2022/04/13 07:27:13;;;;;;;;;;;;;;;17.77;59.09;101531.53;5081598;28;20383;-71
2022/04/13 07:29:38;;;;;;;;;;;;;;;18.10;58.96;101543.13;5081465;28;19916;-71
2022/04/13 07:32:04;;;;;;;;;;;;;;;18.67;58.19;101544.41;5086547;28;19922;-70
2022/04/13 07:34:29;;;;;;;;;;;;;;;19.00;57.85;101541.97;5086570;28;19920;-71
2022/04/13 07:36:54;;;;;;;;;;;;;;;19.66;56.04;101536.09;5078755;28;20327;-71
2022/04/13 07:39:20;;;;;;;;;;;;;;;20.24;54.23;101544.78;5086262;28;19912;-71
2022/04/13 07:41:45;;;;;;;;;;;;;;;20.51;53.52;101541.31;5083654;28;19931;-71
2022/04/13 07:44:11;;;;;;;;;;;;;;;20.90;52.35;101536.84;5085050;28;19961;-70
2022/04/13 07:46:37;;;;;;;;;;;;;;;20.79;52.65;101541.22;5079207;28;19920;-71
2022/04/13 07:49:05;;;;;;;;;;;;;;;20.38;53.16;101552.59;5083675;28;19946;-70
2022/04/13 07:51:31;;;;;;;;;;;;;;;20.08;53.48;101559.63;5087310;28;19928;-70
2022/04/13 07:53:56;;;;;;;;;;;;;;;19.93;54.07;101548.28;5083359;28;19920;-70
2022/04/13 07:56:21;;;;;;;;;;;;;;;20.06;53.55;101544.81;5091599;28;19916;-69
2022/04/13 07:58:46;;;;;;;;;;;;;;;20.38;53.52;101552.59;5070971;28;19916;-71
2022/04/13 08:01:12;;;;;;;;;;;;;;;20.79;51.40;101559.53;5090736;28;20428;-70
2022/04/13 08:03:37;;;;;;;;;;;;;;;21.03;51.62;101554.22;5084117;28;19998;-69
2022/04/13 08:06:03;;;;;;;;;;;;;;;21.16;50.48;101555.88;5085862;28;19955;-70
2022/04/13 08:08:28;;;;;;;;;;;;;;;21.42;51.75;101547.09;5089849;28;19912;-69
2022/04/13 08:10:53;;;;;;;;;;;;;;;22.36;49.01;101557.72;5086689;28;20380;-70
2022/04/13 08:13:18;;;;;;;;;;;;;;;23.41;48.15;101558.25;5090448;28;19924;-69
2022/04/13 08:15:44;;;;;;;;;;;;;;;24.58;47.05;101566.06;5089475;28;19985;-69
2022/04/13 08:18:09;;;;;;;;;;;;;;;25.87;43.78;101564.19;5090500;28;20452;-69
2022/04/13 08:20:34;;;;;;;;;;;;;;;26.95;41.35;101568.38;5086910;28;19927;-70
2022/04/13 08:23:00;;;;;;;;;;;;;;;27.65;40.86;101576.81;5071016;28;20010;-71
2022/04/13 08:25:25;;;;;;;;;;;;;;;28.76;39.54;101568.72;5090028;28;19973;-70
2022/04/13 08:27:50;;;;;;;;;;;;;;;29.45;37.88;101566.09;5088117;28;20270;-70
2022/04/13 08:30:15;;;;;;;;;;;;;;;29.97;34.35;101567.50;5087454;28;19948;-69
2022/04/13 08:32:41;;;;;;;;;;;;;;;30.44;35.91;101576.13;5086023;28;19928;-70
2022/04/13 08:35:09;;;;;;;;;;;;;;;30.45;34.78;101569.88;5086336;28;19928;-69
2022/04/13 08:37:35;;;;;;;;;;;;;;;30.51;32.87;101575.88;5083359;28;19924;-70
2022/04/13 08:40:00;;;;;;;;;;;;;;;30.64;32.42;101577.03;5085327;28;19931;-70
2022/04/13 08:42:35;;;;;;;;;;;;;;;30.90;34.38;101570.59;5087307;28;20436;-70
2022/04/13 08:45:09;;;;;;;;;;;;;;;31.01;33.27;101572.78;5085795;28;19920;-70
2022/04/13 08:47:36;;;;;;;;;;;;;;;30.12;30.91;101577.53;5089265;28;19927;-69
2022/04/13 08:50:03;;;;;;;;;;;;;;;29.51;34.24;101579.13;5088611;28;20018;-70
2022/04/13 08:52:30;;;;;;;;;;;;;;;29.45;35.10;101579.34;5088887;28;19923;-72
2022/04/13 08:54:55;;;;;;;;;;;;;;;30.24;33.05;101589.41;5088790;28;19916;-70
2022/04/13 08:57:22;;;;;;;;;;;;;;;30.70;30.91;101590.97;5087032;28;19916;-70
2022/04/13 08:59:56;;;;;;;;;;;;;;;31.14;32.08;101590.72;5084150;28;20333;-70
2022/04/13 09:02:32;;;;;;;;;;;;;;;32.05;31.86;101587.25;5087522;28;20326;-70
2022/04/13 09:04:59;;;;;;;;;;;;;;;33.21;30.47;101582.94;5087324;28;19917;-70
2022/04/13 09:07:28;;;;;;;;;;;;;;;33.45;28.77;101589.59;5087147;28;19912;-71
2022/04/13 09:09:54;;;;;;;;;;;;;;;32.38;28.91;101598.00;5087902;28;20014;-70
2022/04/13 09:12:19;;;;;;;;;;;;;;;30.92;29.62;101592.63;5087510;28;19916;-69
2022/04/13 09:14:45;;;;;;;;;;;;;;;29.84;30.32;101595.47;5084974;28;20034;-71
2022/04/13 09:17:11;;;;;;;;;;;;;;;29.31;30.98;101598.44;5087425;28;19943;-71
2022/04/13 09:19:37;;;;;;;;;;;;;;;28.84;32.45;101609.00;5087734;28;19952;-71
2022/04/13 09:22:03;;;;;;;;;;;;;;;28.04;33.68;101605.56;5085152;28;19963;-70
2022/04/13 09:24:29;;;;;;;;;;;;;;;27.37;34.37;101605.03;5086155;28;19965;-70
2022/04/13 09:26:54;;;;;;;;;;;;;;;26.73;35.42;101607.69;5085064;28;19920;-70
2022/04/13 09:29:20;;;;;;;;;;;;;;;25.89;37.43;101620.34;5088084;28;19916;-69
2022/04/13 09:31:45;;;;;;;;;;;;;;;25.29;38.73;101616.38;5079581;28;19935;-70
2022/04/13 09:34:11;;;;;;;;;;;;;;;24.90;38.78;101625.91;5079607;28;19977;-70
2022/04/13 09:36:36;;;;;;;;;;;;;;;24.37;39.71;101629.50;5080463;28;19927;-70
2022/04/13 09:39:01;;;;;;;;;;;;;;;23.97;40.75;101628.38;5079944;28;20323;-69
2022/04/13 09:41:33;;;;;;;;;;;;;;;23.59;41.57;101625.38;5081264;28;19929;-68
2022/04/13 09:43:59;;;;;;;;;;;;;;;23.14;42.43;101633.84;5079785;28;20007;-68
2022/04/13 09:46:28;;;;;;;;;;;;;;;22.90;43.40;101636.72;5083950;28;20007;-69
2022/04/13 09:49:13;;;;;;;;;;;;;;;22.80;43.21;101643.78;5082515;28;19931;-69
2022/04/13 09:51:39;;;;;;;;;;;;;;;22.70;43.62;101642.16;5086583;28;20011;-69
2022/04/13 09:54:08;;;;;;;;;;;;;;;22.60;43.48;101650.97;5083896;28;19920;-69
2022/04/13 09:56:35;;;;;;;;;;;;;;;22.43;43.96;101645.88;5085411;28;19920;-70
2022/04/13 09:59:00;;;;;;;;;;;;;;;22.20;44.83;101644.34;5084746;28;20338;-70
2022/04/13 10:01:26;;;;;;;;;;;;;;;21.97;44.68;101645.34;5085239;28;19924;-70
2022/04/13 10:03:57;;;;;;;;;;;;;;;21.75;45.05;101642.84;5085557;28;19927;-70
2022/04/13 10:06:25;;;;;;;;;;;;;;;21.62;45.59;101641.19;5073605;28;19932;-71
2022/04/13 10:08:58;;;;;;;;;;;;;;;21.56;46.04;101644.69;5079260;28;20403;-69
2022/04/13 10:11:23;;;;;;;;;;;;;;;21.40;47.18;101656.97;5082069;28;19920;-69
2022/04/13 10:13:48;;;;;;;;;;;;;;;21.21;46.59;101651.78;5074983;28;20625;-70
2022/04/13 10:16:16;;;;;;;;;;;;;;;20.96;46.63;101661.44;5057388;28;19928;-70
2022/04/13 10:18:58;;;;;;;;;;;;;;;20.84;47.89;101664.94;5076140;28;19935;-71
2022/04/13 10:21:39;;;;;;;;;;;;;;;20.53;49.52;101664.09;5079512;28;20258;-72
2022/04/13 10:24:05;;;;;;;;;;;;;;;20.28;48.42;101650.16;5081759;28;19928;-70
2022/04/13 10:26:30;;;;;;;;;;;;;;;20.19;50.32;101656.22;5079011;28;19927;-70
2022/04/13 10:28:55;;;;;;;;;;;;;;;20.18;49.71;101648.38;5072910;28;19930;-69
2022/04/13 10:31:20;;;;;;;;;;;;;;;20.24;49.66;101659.69;5080676;28;19966;-70
2022/04/13 10:33:49;;;;;;;;;;;;;;;20.18;50.29;101664.91;5082672;28;19916;-70
2022/04/13 10:36:15;;;;;;;;;;;;;;;20.13;51.01;101669.25;5080922;28;20614;-71
2022/04/13 10:38:41;;;;;;;;;;;;;;;20.16;50.85;101664.06;5079588;28;19964;-70
2022/04/13 10:41:09;;;;;;;;;;;;;;;20.33;49.36;101666.69;5085403;28;20009;-70
2022/04/13 10:43:35;;;;;;;;;;;;;;;20.35;51.08;101668.41;5082009;28;19912;-70
2022/04/13 10:46:00;;;;;;;;;;;;;;;20.39;50.47;101669.31;5091317;28;19928;-69
2022/04/13 10:48:29;;;;;;;;;;;;;;;20.48;49.97;101671.06;5086984;28;19917;-70
2022/04/13 10:50:57;;;;;;;;;;;;;;;20.39;50.42;101674.53;5082386;28;19920;-71
2022/04/13 10:53:26;;;;;;;;;;;;;;;20.33;51.61;101682.38;5085078;28;19916;-70
2022/04/13 10:56:04;;;;;;;;;;;;;;;20.33;52.51;101679.75;5083107;28;19999;-71
2022/04/13 10:58:35;;;;;;;;;;;;;;;20.42;53.44;101668.41;5083001;28;19916;-72
2022/04/13 11:01:04;;;;;;;;;;;;;;;20.46;53.36;101678.91;5084771;28;19931;-71
2022/04/13 11:03:34;;;;;;;;;;;;;;;20.35;53.83;101686.72;5085659;28;19927;-71
2022/04/13 11:06:00;;;;;;;;;;;;;;;20.24;53.58;101696.25;5082763;28;19927;-71
2022/04/13 11:08:28;;;;;;;;;;;;;;;20.10;54.77;101698.00;5085906;28;19920;-68
2022/04/13 11:10:54;;;;;;;;;;;;;;;19.95;54.17;101708.38;5085102;28;19994;-71
2022/04/13 11:13:19;;;;;;;;;;;;;;;19.79;52.97;101697.03;5084384;28;20057;-70
2022/04/13 11:15:45;;;;;;;;;;;;;;;19.63;53.65;101698.72;5083768;28;19939;-69
2022/04/13 11:18:28;;;;;;;;;;;;;;;19.63;53.27;101700.44;5077769;28;20372;-70
2022/04/13 11:21:03;;;;;;;;;;;;;;;19.69;54.10;101693.50;5084017;28;19927;-70
2022/04/13 11:23:48;;;;;;;;;;;;;;;19.76;54.29;101691.78;5086588;28;19916;-70
2022/04/13 11:26:14;;;;;;;;;;;;;;;19.74;54.56;101689.19;5088575;28;20007;-72
2022/04/13 11:28:39;;;;;;;;;;;;;;;19.70;53.83;101695.25;5088854;28;20000;-72
2022/04/13 11:31:09;;;;;;;;;;;;;;;19.67;52.99;101694.38;5089742;28;19998;-70
2022/04/13 11:33:43;;;;;;;;;;;;;;;19.60;55.05;101703.06;5092582;28;20379;-70
2022/04/13 11:36:08;;;;;;;;;;;;;;;19.52;54.11;101705.56;5095963;28;20380;-70
2022/04/13 11:38:36;;;;;;;;;;;;;;;19.46;54.45;101701.19;5089905;28;19920;-70
2022/04/13 11:41:08;;;;;;;;;;;;;;;19.45;55.53;101712.50;5086733;28;20323;-71
2022/04/13 11:43:34;;;;;;;;;;;;;;;19.41;55.17;101709.88;5088014;28;19920;-70
2022/04/13 11:45:59;;;;;;;;;;;;;;;19.40;54.42;101715.94;5087073;28;19972;-70
2022/04/13 11:48:34;;;;;;;;;;;;;;;19.36;55.55;101709.00;5091760;28;19912;-69
2022/04/13 11:51:18;;;;;;;;;;;;;;;19.42;53.79;101716.84;5089034;28;21213;-70
2022/04/13 11:54:04;;;;;;;;;;;;;;;19.45;54.97;101719.47;5081494;28;20400;-70
2022/04/13 11:56:30;;;;;;;;;;;;;;;19.52;55.42;101723.84;5090281;28;19919;-70
2022/04/13 11:58:55;;;;;;;;;;;;;;;19.50;55.82;101720.34;5081959;28;20275;-71
2022/04/13 12:01:23;;;;;;;;;;;;;;;19.47;54.35;101720.31;5089691;28;19919;-69
2022/04/13 12:03:48;;;;;;;;;;;;;;;19.47;55.58;101728.16;5079148;28;19924;-70
2022/04/13 12:06:15;;;;;;;;;;;;;;;19.52;55.60;101729.06;5081441;28;20067;-69
2022/04/13 12:08:42;;;;;;;;;;;;;;;19.69;54.69;101727.44;5086777;28;19926;-69
2022/04/13 12:11:11;;;;;;;;;;;;;;;19.80;54.33;101733.56;5087950;28;19967;-69
2022/04/13 12:13:47;;;;;;;;;;;;;;;19.90;53.67;101726.66;5093787;28;19916;-69
2022/04/13 12:16:16;;;;;;;;;;;;;;;20.12;54.22;101727.56;5081378;28;20383;-69
2022/04/13 12:18:41;;;;;;;;;;;;;;;20.11;54.01;101733.66;5087353;28;20329;-70
2022/04/13 12:21:08;;;;;;;;;;;;;;;20.03;53.37;101733.66;5083440;28;20042;-71
2022/04/13 12:23:34;;;;;;;;;;;;;;;19.61;55.55;101738.72;5088048;28;19969;-68
2022/04/13 12:25:59;;;;;;;;;;;;;;;19.31;55.43;101736.78;5085023;28;20039;-69
2022/04/13 12:28:25;;;;;;;;;;;;;;;19.11;59.10;101740.13;5088702;28;20410;-69
2022/04/13 12:31:10;;;;;;;;;;;;;;;18.83;57.61;101730.38;5084189;28;20311;-68